createdAt,value
2019-01-16T00:03:21.154Z,9.53
2019-01-16T00:05:55.219Z,9.56
2019-01-16T00:08:29.242Z,9.57
2019-01-16T00:11:06.674Z,9.58
2019-01-16T00:15:51.000Z,9.58
2019-01-16T00:18:25.347Z,9.56
2019-01-16T00:23:06.976Z,9.57
2019-01-16T00:25:43.974Z,9.56
2019-01-16T00:29:16.831Z,9.58
2019-01-16T00:31:54.382Z,9.59
2019-01-16T00:35:02.743Z,9.58
2019-01-16T00:37:37.675Z,9.60
2019-01-16T00:40:13.126Z,9.63
2019-01-16T00:42:47.302Z,9.66
2019-01-16T00:45:35.674Z,9.69
2019-01-16T00:49:10.534Z,9.71
2019-01-16T00:53:47.716Z,9.74
2019-01-16T00:56:22.744Z,9.75
2019-01-16T00:58:57.644Z,9.75
2019-01-16T01:01:32.574Z,9.74
2019-01-16T01:04:06.868Z,9.73
2019-01-16T01:06:41.392Z,9.71
2019-01-16T01:09:33.560Z,9.69
2019-01-16T01:12:11.549Z,9.69
2019-01-16T01:14:45.560Z,9.68
2019-01-16T01:17:22.514Z,9.67
2019-01-16T01:22:02.128Z,9.68
2019-01-16T01:25:33.977Z,9.69
2019-01-16T01:28:08.209Z,9.71
2019-01-16T01:30:53.264Z,9.71
2019-01-16T01:33:31.473Z,9.73
2019-01-16T01:38:09.480Z,9.77
2019-01-16T01:40:50.499Z,9.81
2019-01-16T01:43:27.466Z,9.83
2019-01-16T01:46:03.984Z,9.84
2019-01-16T01:50:45.603Z,9.85
2019-01-16T01:53:29.751Z,9.87
2019-01-16T01:58:06.854Z,9.87
2019-01-16T02:00:55.194Z,9.86
2019-01-16T02:03:29.181Z,9.87
2019-01-16T02:06:04.060Z,9.85
2019-01-16T02:08:37.712Z,9.85
2019-01-16T02:11:11.878Z,9.84
2019-01-16T02:13:45.510Z,9.84
2019-01-16T02:16:19.727Z,9.84
2019-01-16T02:19:53.234Z,9.84
2019-01-16T02:22:27.554Z,9.84
2019-01-16T02:25:02.894Z,9.83
2019-01-16T02:27:45.286Z,9.83
2019-01-16T02:32:26.497Z,9.82
2019-01-16T02:35:59.250Z,9.82
2019-01-16T02:38:32.430Z,9.80
2019-01-16T02:41:13.404Z,9.80
2019-01-16T02:45:50.405Z,9.79
2019-01-16T02:50:32.366Z,9.76
2019-01-16T02:53:05.519Z,9.76
2019-01-16T02:55:41.661Z,9.76
2019-01-16T02:58:16.376Z,9.77
2019-01-16T03:02:58.755Z,9.79
2019-01-16T03:05:40.148Z,9.79
2019-01-16T03:08:14.561Z,9.79
2019-01-16T03:10:48.536Z,9.79
2019-01-16T03:14:30.327Z,9.80
2019-01-16T03:17:05.463Z,9.81
2019-01-16T03:19:40.538Z,9.82
2019-01-16T03:22:18.691Z,9.83
2019-01-16T03:24:53.428Z,9.83
2019-01-16T03:29:32.585Z,9.83
2019-01-16T03:32:10.632Z,9.83
2019-01-16T03:34:45.587Z,9.83
2019-01-16T03:38:17.906Z,9.87
2019-01-16T03:41:00.102Z,9.84
2019-01-16T03:43:40.256Z,9.83
2019-01-16T03:46:18.374Z,9.82
2019-01-16T03:48:52.967Z,9.83
2019-01-16T03:51:27.273Z,9.83
2019-01-16T03:54:02.776Z,9.83
2019-01-16T03:57:03.694Z,9.83
2019-01-16T03:59:38.679Z,9.83
2019-01-16T04:02:12.887Z,9.82
2019-01-16T04:05:02.296Z,9.81
2019-01-16T04:08:09.359Z,9.82
2019-01-16T04:10:43.483Z,9.84
2019-01-16T04:13:21.493Z,9.85
2019-01-16T04:15:57.614Z,9.86
2019-01-16T04:18:31.672Z,9.88
2019-01-16T04:21:06.826Z,9.90
2019-01-16T04:25:44.452Z,9.88
2019-01-16T04:28:21.579Z,9.92
2019-01-16T04:30:55.676Z,9.91
2019-01-16T04:33:30.724Z,9.91
2019-01-16T04:36:04.708Z,9.90
2019-01-16T04:39:10.649Z,9.92
2019-01-16T04:41:45.424Z,9.93
2019-01-16T04:45:24.196Z,9.93
2019-01-16T04:47:58.551Z,9.93
2019-01-16T04:52:35.511Z,9.94
2019-01-16T04:55:24.141Z,9.95
2019-01-16T04:58:08.050Z,9.96
2019-01-16T05:00:42.324Z,9.97
2019-01-16T05:03:15.542Z,9.99
2019-01-16T05:05:50.628Z,9.98
2019-01-16T05:08:31.740Z,10.00
2019-01-16T05:11:38.270Z,10.01
2019-01-16T05:14:14.878Z,10.02
2019-01-16T05:16:49.747Z,10.02
2019-01-16T05:19:54.877Z,10.04
2019-01-16T05:23:31.322Z,10.04
2019-01-16T05:26:05.423Z,10.05
2019-01-16T05:28:58.236Z,10.08
2019-01-16T05:31:42.122Z,10.10
2019-01-16T05:34:19.218Z,10.13
2019-01-16T05:36:59.162Z,10.12
2019-01-16T05:39:37.340Z,10.10
2019-01-16T05:42:21.486Z,10.08
2019-01-16T05:44:58.771Z,10.05
2019-01-16T05:49:46.620Z,10.01
2019-01-16T05:52:33.915Z,9.95
2019-01-16T06:01:36.993Z,9.94
2019-01-16T06:04:18.998Z,9.96
2019-01-16T06:06:53.093Z,9.97
2019-01-16T06:10:24.941Z,10.00
2019-01-16T06:13:07.847Z,9.98
2019-01-16T06:16:14.278Z,9.95
2019-01-16T06:19:21.087Z,9.93
2019-01-16T06:21:59.178Z,9.89
2019-01-16T06:25:04.017Z,9.85
2019-01-16T06:27:38.119Z,9.80
2019-01-16T06:30:15.187Z,9.79
2019-01-16T06:32:49.562Z,9.77
2019-01-16T06:37:26.930Z,9.74
2019-01-16T06:40:05.056Z,9.71
2019-01-16T06:42:45.064Z,9.72
2019-01-16T06:46:19.403Z,9.72
2019-01-16T06:49:25.761Z,9.71
2019-01-16T06:54:07.312Z,9.72
2019-01-16T06:56:41.369Z,9.73
2019-01-16T06:59:15.395Z,9.75
2019-01-16T07:02:48.390Z,9.80
2019-01-16T07:05:29.490Z,9.85
2019-01-16T07:08:40.036Z,9.87
2019-01-16T07:11:21.211Z,9.91
2019-01-16T07:14:00.742Z,9.94
2019-01-16T07:17:05.856Z,9.99
2019-01-16T07:19:40.973Z,10.04
2019-01-16T07:23:15.795Z,10.06
2019-01-16T07:25:51.300Z,10.09
2019-01-16T07:28:56.960Z,10.11
2019-01-16T07:31:33.053Z,10.12
2019-01-16T07:35:10.446Z,10.15
2019-01-16T07:37:44.583Z,10.17
2019-01-16T07:40:18.942Z,10.20
2019-01-16T07:42:54.941Z,10.24
2019-01-16T07:45:40.205Z,10.25
2019-01-16T07:48:15.001Z,10.27
2019-01-16T07:50:53.326Z,10.26
2019-01-16T07:54:27.850Z,10.26
2019-01-16T07:57:04.055Z,10.28
2019-01-16T07:59:40.070Z,10.30
2019-01-16T08:02:43.544Z,10.31
2019-01-16T08:06:23.216Z,10.33
2019-01-16T08:09:00.249Z,10.35
2019-01-16T08:11:34.325Z,10.37
2019-01-16T08:14:09.808Z,10.37
2019-01-16T08:16:51.033Z,10.37
2019-01-16T08:19:25.516Z,10.37
2019-01-16T08:21:59.824Z,10.39
2019-01-16T08:24:34.899Z,10.40
2019-01-16T08:27:13.771Z,10.42
2019-01-16T08:29:50.920Z,10.44
2019-01-16T08:34:27.628Z,10.45
2019-01-16T08:37:05.001Z,10.47
2019-01-16T08:39:39.943Z,10.49
2019-01-16T08:44:19.911Z,10.51
2019-01-16T08:46:55.520Z,10.54
2019-01-16T08:51:37.901Z,10.52
2019-01-16T08:56:19.355Z,10.53
2019-01-16T09:01:00.429Z,10.56
2019-01-16T09:04:06.938Z,10.55
2019-01-16T09:07:12.046Z,10.57
2019-01-16T09:09:47.005Z,10.56
2019-01-16T09:12:27.242Z,10.56
2019-01-16T09:15:07.350Z,10.57
2019-01-16T09:17:42.642Z,10.60
2019-01-16T09:20:22.442Z,10.63
2019-01-16T09:22:58.520Z,10.66
2019-01-16T09:25:42.907Z,10.69
2019-01-16T09:28:36.225Z,10.75
2019-01-16T09:32:07.990Z,10.78
2019-01-16T09:34:47.085Z,10.82
2019-01-16T09:39:30.239Z,10.83
2019-01-16T09:42:03.358Z,10.87
2019-01-16T09:45:08.780Z,10.90
2019-01-16T09:47:52.615Z,10.90
2019-01-16T09:51:30.478Z,10.90
2019-01-16T09:54:07.420Z,10.99
2019-01-16T09:57:40.643Z,11.07
2019-01-16T10:00:17.576Z,11.17
2019-01-16T10:04:56.834Z,11.22
2019-01-16T10:07:31.366Z,11.28
2019-01-16T10:10:09.156Z,11.26
2019-01-16T10:13:41.358Z,11.26
2019-01-16T10:16:15.611Z,11.28
2019-01-16T10:18:56.482Z,11.32
2019-01-16T10:22:32.067Z,11.35
2019-01-16T10:25:06.089Z,11.37
2019-01-16T10:28:38.848Z,11.39
2019-01-16T10:31:21.796Z,11.36
2019-01-16T10:33:56.307Z,11.13
2019-01-16T10:37:32.433Z,10.74
2019-01-16T10:40:09.078Z,10.25
2019-01-16T10:42:52.105Z,9.98
2019-01-16T10:46:32.945Z,9.81
2019-01-16T10:49:16.089Z,9.67
2019-01-16T10:52:54.021Z,9.62
2019-01-16T10:57:35.395Z,9.47
2019-01-16T11:02:17.589Z,9.29
2019-01-16T11:05:13.340Z,9.11
2019-01-16T11:07:51.031Z,9.13
2019-01-16T11:12:34.144Z,9.13
2019-01-16T11:15:10.533Z,9.09
2019-01-16T11:19:51.696Z,9.11
2019-01-16T11:22:30.886Z,9.07
2019-01-16T11:25:05.380Z,9.06
2019-01-16T11:27:39.439Z,9.04
2019-01-16T11:30:15.584Z,9.00
2019-01-16T11:32:59.322Z,8.96
2019-01-16T11:35:38.300Z,8.96
2019-01-16T11:39:15.197Z,8.98
2019-01-16T11:41:51.781Z,9.01
2019-01-16T11:44:29.108Z,8.96
2019-01-16T11:47:07.677Z,8.93
2019-01-16T11:49:45.982Z,8.95
2019-01-16T11:52:22.198Z,8.98
2019-01-16T11:54:56.272Z,9.03
2019-01-16T11:57:37.287Z,9.08
2019-01-16T12:00:17.792Z,9.12
2019-01-16T12:02:57.328Z,9.15
2019-01-16T12:05:37.728Z,9.18
2019-01-16T12:08:29.178Z,9.21
2019-01-16T12:11:39.253Z,9.26
2019-01-16T12:14:16.004Z,9.30
2019-01-16T12:18:53.238Z,9.32
2019-01-16T12:24:28.473Z,9.31
2019-01-16T12:27:04.767Z,9.28
2019-01-16T12:30:38.752Z,9.26
2019-01-16T12:33:15.803Z,9.21
2019-01-16T12:35:52.605Z,9.17
2019-01-16T12:40:29.228Z,9.15
2019-01-16T12:43:10.019Z,9.19
2019-01-16T12:45:49.989Z,9.20
2019-01-16T12:48:30.055Z,9.24
2019-01-16T12:51:04.350Z,9.28
2019-01-16T12:53:46.718Z,9.32
2019-01-16T12:56:28.741Z,9.36
2019-01-16T12:59:07.658Z,9.38
2019-01-16T13:01:48.869Z,9.38
2019-01-16T13:04:41.995Z,9.39
2019-01-16T13:07:15.987Z,9.40
2019-01-16T13:09:49.129Z,9.42
2019-01-16T13:14:30.127Z,9.44
2019-01-16T13:17:18.929Z,9.49
2019-01-16T13:21:55.857Z,9.50
2019-01-16T13:24:31.212Z,9.50
2019-01-16T13:27:21.583Z,9.50
2019-01-16T13:30:01.914Z,9.53
2019-01-16T13:32:36.156Z,9.59
2019-01-16T13:35:16.626Z,9.65
2019-01-16T13:38:01.770Z,9.69
2019-01-16T13:40:36.374Z,9.74
2019-01-16T13:44:09.430Z,9.78
2019-01-16T13:48:52.876Z,9.85
2019-01-16T13:51:36.110Z,9.91
2019-01-16T13:54:13.660Z,9.96
2019-01-16T13:56:50.889Z,9.97
2019-01-16T13:59:32.272Z,9.99
2019-01-16T14:02:20.862Z,9.97
2019-01-16T14:04:57.986Z,9.95
2019-01-16T14:07:32.194Z,9.94
2019-01-16T14:11:04.152Z,9.93
2019-01-16T14:13:44.192Z,9.95
2019-01-16T14:16:22.297Z,9.99
2019-01-16T14:19:01.870Z,10.00
2019-01-16T14:23:44.373Z,9.99
2019-01-16T14:27:16.486Z,9.95
2019-01-16T14:29:50.778Z,9.97
2019-01-16T14:32:38.881Z,10.02
2019-01-16T14:35:13.795Z,10.05
2019-01-16T14:37:48.028Z,10.08
2019-01-16T14:40:23.220Z,10.10
2019-01-16T14:42:58.647Z,10.11
2019-01-16T14:45:33.033Z,10.13
2019-01-16T14:48:21.994Z,10.12
2019-01-16T14:50:59.100Z,10.12
2019-01-16T14:53:44.086Z,10.09
2019-01-16T14:56:18.457Z,10.08
2019-01-16T15:03:10.003Z,10.07
2019-01-16T15:05:50.418Z,10.10
2019-01-16T15:08:28.530Z,10.08
2019-01-16T15:11:08.978Z,10.07
2019-01-16T15:13:43.126Z,10.04
2019-01-16T15:17:18.033Z,10.01
2019-01-16T15:19:58.016Z,9.94
2019-01-16T15:22:36.967Z,9.89
2019-01-16T15:25:17.577Z,9.87
2019-01-16T15:28:22.715Z,9.85
2019-01-16T15:30:55.977Z,9.85
2019-01-16T15:33:38.996Z,9.89
2019-01-16T15:36:13.072Z,9.92
2019-01-16T15:38:47.102Z,9.93
2019-01-16T15:41:21.453Z,9.92
2019-01-16T15:43:57.497Z,9.88
2019-01-16T15:46:31.950Z,9.86
2019-01-16T15:49:06.643Z,9.86
2019-01-16T15:51:43.467Z,9.90
2019-01-16T15:54:24.002Z,9.91
2019-01-16T15:56:56.880Z,9.88
2019-01-16T15:59:37.385Z,9.87
2019-01-16T16:02:12.152Z,9.81
2019-01-16T16:04:50.194Z,9.73
2019-01-16T16:07:24.325Z,9.66
2019-01-16T16:10:03.841Z,9.61
2019-01-16T16:12:40.468Z,9.57
2019-01-16T16:16:19.231Z,9.53
2019-01-16T16:19:07.483Z,9.53
2019-01-16T16:21:41.780Z,9.52
2019-01-16T16:24:15.151Z,9.52
2019-01-16T16:27:21.299Z,9.55
2019-01-16T16:30:00.345Z,9.56
2019-01-16T16:32:36.563Z,9.52
2019-01-16T16:35:11.279Z,9.47
2019-01-16T16:37:45.347Z,9.42
2019-01-16T16:40:19.608Z,9.38
2019-01-16T16:42:55.519Z,9.36
2019-01-16T16:46:33.559Z,9.33
2019-01-16T16:49:07.501Z,9.38
2019-01-16T16:52:46.486Z,9.44
2019-01-16T16:55:20.717Z,9.44
2019-01-16T16:57:54.756Z,9.43
2019-01-16T17:02:31.688Z,9.39
2019-01-16T17:05:06.706Z,9.38
2019-01-16T17:08:45.611Z,9.36
2019-01-16T17:12:20.547Z,9.28
2019-01-16T17:15:01.902Z,9.18
2019-01-16T17:17:37.299Z,9.12
2019-01-16T17:20:11.565Z,9.05
2019-01-16T17:22:48.771Z,8.96
2019-01-16T17:25:25.731Z,8.85
2019-01-16T17:28:04.851Z,8.78
2019-01-16T17:32:42.353Z,8.74
2019-01-16T17:37:19.179Z,8.71
2019-01-16T17:39:52.570Z,8.64
2019-01-16T17:43:03.040Z,8.65
2019-01-16T17:45:37.092Z,8.63
2019-01-16T17:49:13.243Z,8.59
2019-01-16T17:53:51.554Z,8.55
2019-01-16T17:56:26.022Z,8.45
2019-01-16T18:01:03.478Z,8.43
2019-01-16T18:03:49.726Z,8.41
2019-01-16T18:06:26.893Z,8.40
2019-01-16T18:10:04.812Z,8.38
2019-01-16T18:14:46.318Z,8.38
2019-01-16T18:24:24.483Z,8.47
2019-01-16T18:28:00.281Z,8.50
2019-01-16T18:30:53.333Z,8.52
2019-01-16T18:33:57.967Z,8.48
2019-01-16T18:36:44.262Z,8.40
2019-01-16T18:39:21.924Z,8.29
2019-01-16T18:41:56.717Z,8.19
2019-01-16T18:44:30.704Z,8.14
2019-01-16T18:47:05.019Z,8.11
2019-01-16T18:49:42.186Z,8.07
2019-01-16T18:52:21.316Z,8.01
2019-01-16T18:55:02.347Z,7.97
2019-01-16T18:58:36.058Z,7.94
2019-01-16T19:01:14.337Z,7.93
2019-01-16T19:03:52.341Z,7.99
2019-01-16T19:06:26.574Z,8.04
2019-01-16T19:08:59.645Z,8.06
2019-01-16T19:13:40.129Z,8.05
2019-01-16T19:16:15.078Z,8.02
2019-01-16T19:18:49.320Z,8.06
2019-01-16T19:21:23.543Z,8.09
2019-01-16T19:23:58.652Z,8.09
2019-01-16T19:26:36.935Z,8.05
2019-01-16T19:29:11.150Z,7.98
2019-01-16T19:31:46.220Z,7.96
2019-01-16T19:34:22.454Z,7.99
2019-01-16T19:37:57.232Z,8.01
2019-01-16T19:40:39.419Z,8.03
2019-01-16T19:43:19.926Z,7.98
2019-01-16T19:45:54.999Z,7.91
2019-01-16T19:48:30.226Z,7.91
2019-01-16T19:52:01.845Z,7.91
2019-01-16T19:54:36.755Z,7.91
2019-01-16T19:57:11.186Z,7.92
2019-01-16T20:01:51.745Z,7.94
2019-01-16T20:04:26.893Z,8.02
2019-01-16T20:07:20.996Z,8.06
2019-01-16T20:10:04.068Z,8.09
2019-01-16T20:12:42.116Z,8.14
2019-01-16T20:15:17.621Z,8.24
2019-01-16T20:18:51.503Z,8.32
2019-01-16T20:21:32.202Z,8.38
2019-01-16T20:24:12.255Z,8.38
2019-01-16T20:26:58.352Z,8.36
2019-01-16T20:30:33.307Z,8.35
2019-01-16T20:35:15.220Z,8.31
2019-01-16T20:38:21.475Z,8.22
2019-01-16T20:43:01.348Z,8.16
2019-01-16T20:45:40.424Z,8.11
2019-01-16T20:49:17.744Z,8.11
2019-01-16T20:51:50.970Z,8.17
2019-01-16T20:54:57.406Z,8.21
2019-01-16T20:57:31.728Z,8.21
2019-01-16T21:02:10.615Z,8.19
2019-01-16T21:04:48.971Z,8.15
2019-01-16T21:07:26.020Z,8.17
2019-01-16T21:10:00.227Z,8.19
2019-01-16T21:14:39.888Z,8.18
2019-01-16T21:17:18.795Z,8.17
2019-01-16T21:19:52.806Z,8.12
2019-01-16T21:22:29.025Z,8.08
2019-01-16T21:25:03.291Z,8.05
2019-01-16T21:27:44.473Z,8.06
2019-01-16T21:30:19.801Z,8.11
2019-01-16T21:32:54.054Z,8.13
2019-01-16T21:35:40.251Z,8.11
2019-01-16T21:40:18.149Z,8.09
2019-01-16T21:42:52.318Z,7.94
2019-01-16T21:45:33.305Z,7.86
2019-01-16T21:49:10.174Z,7.78
2019-01-16T21:51:46.234Z,7.73
2019-01-16T21:54:26.372Z,7.72
2019-01-16T21:56:59.576Z,7.72
2019-01-16T21:59:35.527Z,7.74
2019-01-16T22:02:15.825Z,7.74
2019-01-16T22:04:50.004Z,7.76
2019-01-16T22:08:23.651Z,7.77
2019-01-16T22:10:56.791Z,7.82
2019-01-16T22:14:28.652Z,7.85
2019-01-16T22:17:07.125Z,7.89
2019-01-16T22:19:44.311Z,7.91
2019-01-16T22:22:27.589Z,7.94
2019-01-16T22:25:07.455Z,7.98
2019-01-16T22:27:57.691Z,8.01
2019-01-16T22:30:43.833Z,8.01
2019-01-16T22:33:19.724Z,8.05
2019-01-16T22:35:53.758Z,8.06
2019-01-16T22:38:29.947Z,8.05
2019-01-16T22:41:13.195Z,8.03
2019-01-16T22:43:52.411Z,8.01
2019-01-16T22:46:45.771Z,7.99
2019-01-16T22:49:19.842Z,7.94
2019-01-16T22:52:06.006Z,7.94
2019-01-16T22:55:37.903Z,7.90
2019-01-16T22:58:12.083Z,7.86
2019-01-16T23:00:50.839Z,7.81
2019-01-16T23:03:25.109Z,7.76
2019-01-16T23:06:01.295Z,7.73
2019-01-16T23:09:33.110Z,7.73
2019-01-16T23:12:09.042Z,7.74
2019-01-16T23:14:46.154Z,7.76
2019-01-16T23:17:26.255Z,7.78
2019-01-16T23:20:02.383Z,7.82
2019-01-16T23:22:40.436Z,7.84
2019-01-16T23:26:17.507Z,7.88
2019-01-16T23:30:59.286Z,7.90
2019-01-16T23:33:33.406Z,7.89
2019-01-16T23:36:19.135Z,7.90
2019-01-16T23:38:58.115Z,7.89
2019-01-16T23:42:35.259Z,7.87
2019-01-16T23:45:21.485Z,7.84
2019-01-16T23:48:02.578Z,7.84
2019-01-16T23:50:38.691Z,7.84
2019-01-16T23:54:17.509Z,7.87
2019-01-16T23:56:50.660Z,7.86
2019-01-16T23:59:27.774Z,7.84
